Time;durP1;ratioP1;P1;durP2;ratioP2;P2;SDS_P1;SDS_P2;PMS_P1;PMS_P2;Temp;Humidity;BMP_temperature;BMP_pressure;BME280_temperature;BME280_humidity;BME280_pressure;Samples;Min_cycle;Max_cycle;Signal;HPM_P1;HPM_P2
2023/06/12 00:01:16;;;;;;;7.17;5.97;;;;;;;20.49;48.97;100306.50;5048200;28;20295;-68
2023/06/12 00:03:43;;;;;;;8.33;6.07;;;;;;;20.40;49.36;100300.47;5047693;28;20851;-67
2023/06/12 00:06:10;;;;;;;7.73;6.00;;;;;;;20.21;49.73;100300.06;5052840;28;20210;-68
2023/06/12 00:08:41;;;;;;;10.03;6.33;;;;;;;20.21;50.19;100309.03;5054067;28;20586;-67
2023/06/12 00:11:12;;;;;;;8.40;6.10;;;;;;;20.13;50.26;100310.16;5042757;28;20199;-67
2023/06/12 00:13:40;;;;;;;9.93;6.20;;;;;;;20.07;50.59;100310.31;5048283;28;20215;-67
2023/06/12 00:16:07;;;;;;;12.07;5.90;;;;;;;20.09;50.42;100316.53;5054124;28;20234;-67
2023/06/12 00:18:35;;;;;;;7.60;6.07;;;;;;;20.00;50.58;100315.84;5054167;28;20205;-70
2023/06/12 00:21:02;;;;;;;7.90;6.07;;;;;;;19.98;50.60;100312.31;5048424;28;20437;-69
2023/06/12 00:23:29;;;;;;;11.10;6.00;;;;;;;19.96;50.77;100314.16;5054254;28;20190;-68
2023/06/12 00:25:56;;;;;;;6.40;5.53;;;;;;;19.80;51.11;100325.34;5047671;28;20290;-67
2023/06/12 00:28:22;;;;;;;7.10;6.13;;;;;;;19.70;51.42;100319.34;5050777;28;20211;-70
2023/06/12 00:30:49;;;;;;;11.30;6.67;;;;;;;19.80;51.31;100326.25;5042031;28;20217;-68
2023/06/12 00:33:16;;;;;;;6.80;6.10;;;;;;;19.90;51.48;100317.00;5053800;28;20620;-67
2023/06/12 00:35:43;;;;;;;8.67;6.60;;;;;;;19.85;51.41;100323.44;5052436;28;20219;-67
2023/06/12 00:38:10;;;;;;;7.17;6.00;;;;;;;20.03;51.31;100323.84;5047853;28;20202;-67
2023/06/12 00:40:37;;;;;;;8.63;6.13;;;;;;;19.94;51.26;100326.75;5048672;28;20285;-67
2023/06/12 00:43:05;;;;;;;7.53;6.10;;;;;;;19.97;51.47;100321.28;5049202;28;20195;-67
2023/06/12 00:45:31;;;;;;;7.87;6.13;;;;;;;20.05;51.08;100333.69;5050339;28;20218;-67
2023/06/12 00:47:58;;;;;;;8.90;6.03;;;;;;;20.07;50.96;100331.84;5050117;28;20245;-67
2023/06/12 00:50:27;;;;;;;8.03;6.20;;;;;;;20.02;50.93;100335.53;5051798;28;20245;-68
2023/06/12 00:52:56;;;;;;;8.70;6.30;;;;;;;19.90;51.21;100327.75;5049571;28;20199;-67
2023/06/12 00:55:23;;;;;;;10.80;6.67;;;;;;;19.83;51.75;100331.53;5045543;28;20218;-68
2023/06/12 00:57:51;;;;;;;10.13;6.53;;;;;;;19.67;51.83;100335.53;5048791;28;20938;-67
2023/06/12 01:00:19;;;;;;;8.10;5.57;;;;;;;19.51;52.62;100329.59;5049868;28;20203;-68
2023/06/12 01:02:50;;;;;;;12.10;6.20;;;;;;;19.45;52.74;100334.25;5053490;28;20202;-68
2023/06/12 01:05:37;;;;;;;9.87;6.13;;;;;;;19.31;53.73;100340.84;5043715;28;20225;-67
2023/06/12 01:08:28;;;;;;;9.73;5.77;;;;;;;19.14;54.39;100340.31;5043143;28;20219;-68
2023/06/12 01:11:04;;;;;;;10.47;6.30;;;;;;;19.08;54.36;100343.13;5046565;28;20678;-67
2023/06/12 01:13:31;;;;;;;8.33;6.20;;;;;;;19.03;54.98;100345.03;5051048;28;20189;-67
2023/06/12 01:15:57;;;;;;;9.73;6.13;;;;;;;18.97;55.69;100348.75;5051551;28;20227;-67
2023/06/12 01:18:23;;;;;;;9.03;6.73;;;;;;;18.91;56.09;100348.00;5045824;28;20216;-68
2023/06/12 01:20:53;;;;;;;11.03;6.60;;;;;;;18.97;56.60;100342.50;5053211;28;20199;-69
2023/06/12 01:23:43;;;;;;;7.27;6.03;;;;;;;18.84;56.88;100358.00;5044044;28;20206;-67
2023/06/12 01:26:27;;;;;;;7.37;5.77;;;;;;;18.77;57.56;100346.47;5047764;28;20214;-69
2023/06/12 01:29:27;;;;;;;10.73;5.90;;;;;;;18.64;58.00;100352.13;5050375;28;20656;-67
2023/06/12 01:32:07;;;;;;;6.97;6.27;;;;;;;18.39;58.31;100352.56;5043742;28;20206;-67
2023/06/12 01:34:57;;;;;;;7.13;6.37;;;;;;;18.31;59.02;100346.47;5047274;28;20596;-67
2023/06/12 01:37:54;;;;;;;9.07;6.77;;;;;;;18.31;59.19;100353.63;5049277;28;20213;-67
2023/06/12 01:40:22;;;;;;;8.90;6.20;;;;;;;18.38;58.77;100355.28;5036372;28;20199;-67
2023/06/12 01:42:49;;;;;;;7.20;6.10;;;;;;;18.37;59.23;100358.88;5042802;28;20208;-67
2023/06/12 01:45:15;;;;;;;7.93;6.10;;;;;;;18.32;59.21;100352.72;5041796;28;20560;-67
2023/06/12 01:47:42;;;;;;;8.17;6.43;;;;;;;18.16;59.77;100349.44;5051455;28;20275;-67
2023/06/12 01:50:10;;;;;;;10.63;6.60;;;;;;;18.01;60.42;100355.97;5047799;28;20623;-68
2023/06/12 01:52:38;;;;;;;8.77;6.20;;;;;;;17.97;60.66;100346.19;5044928;28;20279;-68
2023/06/12 01:55:05;;;;;;;7.43;6.30;;;;;;;17.84;61.66;100353.56;5048969;28;20684;-66
2023/06/12 01:57:32;;;;;;;7.97;6.23;;;;;;;17.77;61.52;100353.69;5041558;28;20200;-70
2023/06/12 02:00:04;;;;;;;8.73;6.90;;;;;;;17.67;61.53;100354.78;5047532;28;20729;-68
2023/06/12 02:02:32;;;;;;;7.77;6.97;;;;;;;17.69;62.01;100353.84;5050598;28;20626;-67
2023/06/12 02:04:59;;;;;;;7.70;6.40;;;;;;;17.79;60.72;100346.53;5047127;28;20509;-66
2023/06/12 02:07:25;;;;;;;9.00;6.57;;;;;;;17.91;60.65;100348.09;5048782;28;20993;-69
2023/06/12 02:09:52;;;;;;;9.20;6.47;;;;;;;17.84;60.42;100344.66;5051063;28;20200;-68
2023/06/12 02:12:18;;;;;;;8.40;6.43;;;;;;;17.78;60.77;100356.34;5052266;28;20676;-67
2023/06/12 02:14:45;;;;;;;7.83;6.23;;;;;;;17.91;60.12;100356.13;5047630;28;20202;-67
2023/06/12 02:17:14;;;;;;;7.93;6.40;;;;;;;17.91;59.86;100357.03;5047287;28;20233;-67
2023/06/12 02:19:40;;;;;;;10.10;6.37;;;;;;;18.05;60.00;100357.69;5045660;28;20249;-67
2023/06/12 02:22:06;;;;;;;8.37;6.20;;;;;;;17.95;59.63;100357.84;5044182;28;20199;-67
2023/06/12 02:24:35;;;;;;;9.23;6.50;;;;;;;18.01;59.28;100364.00;5051474;28;20240;-67
2023/06/12 02:27:02;;;;;;;9.43;6.47;;;;;;;17.87;59.63;100367.81;5043841;28;20730;-68
2023/06/12 02:29:28;;;;;;;8.27;6.50;;;;;;;17.88;59.29;100373.16;5052926;28;20329;-67
2023/06/12 02:31:54;;;;;;;6.70;6.00;;;;;;;18.07;58.81;100376.41;5052296;28;20195;-70
2023/06/12 02:34:21;;;;;;;8.97;6.40;;;;;;;18.15;58.22;100371.81;5046082;28;20249;-67
2023/06/12 02:36:47;;;;;;;9.23;6.70;;;;;;;18.15;59.18;100366.44;5046363;28;20933;-67
2023/06/12 02:39:14;;;;;;;7.90;5.80;;;;;;;18.13;59.47;100365.59;5046003;28;20225;-67
2023/06/12 02:41:46;;;;;;;7.47;6.43;;;;;;;18.03;59.74;100370.22;5048042;28;20223;-66
2023/06/12 02:44:13;;;;;;;6.97;5.87;;;;;;;17.98;60.11;100364.03;5054072;28;20268;-69
2023/06/12 02:47:09;;;;;;;8.20;6.30;;;;;;;17.87;60.51;100363.34;5048048;28;20227;-69
2023/06/12 02:49:44;;;;;;;7.30;6.23;;;;;;;17.81;60.80;100363.44;5039136;28;20756;-67
2023/06/12 02:52:11;;;;;;;10.03;6.27;;;;;;;17.78;61.50;100371.53;5046174;28;20229;-67
2023/06/12 02:54:38;;;;;;;9.17;6.20;;;;;;;17.96;60.24;100371.22;5055224;28;20310;-66
2023/06/12 02:57:04;;;;;;;7.20;5.97;;;;;;;17.87;60.68;100370.50;5056164;28;20317;-67
2023/06/12 02:59:31;;;;;;;8.87;6.37;;;;;;;17.63;61.31;100378.00;5043428;28;20282;-67
2023/06/12 03:01:57;;;;;;;7.87;6.33;;;;;;;17.50;62.42;100382.63;5050572;28;20195;-67
2023/06/12 03:04:24;;;;;;;7.50;6.17;;;;;;;17.44;63.63;100380.06;5051622;28;20202;-66
2023/06/12 03:06:53;;;;;;;8.70;6.20;;;;;;;17.45;63.75;100383.63;5048705;28;20618;-67
2023/06/12 03:09:23;;;;;;;8.00;6.63;;;;;;;17.49;63.79;100380.88;5053076;28;20215;-67
2023/06/12 03:11:51;;;;;;;8.00;6.47;;;;;;;17.54;64.03;100376.31;5051448;28;20726;-67
2023/06/12 03:14:21;;;;;;;9.43;6.70;;;;;;;17.38;64.52;100381.94;5049898;28;20226;-66
2023/06/12 03:16:50;;;;;;;8.13;5.87;;;;;;;17.37;65.49;100380.19;5045141;28;20659;-67
2023/06/12 03:19:16;;;;;;;11.03;6.60;;;;;;;17.26;66.17;100384.81;5046203;28;20199;-67
2023/06/12 03:21:43;;;;;;;8.83;6.90;;;;;;;17.29;65.78;100393.69;5054554;28;20202;-66
2023/06/12 03:24:10;;;;;;;11.30;7.20;;;;;;;17.33;65.43;100394.50;5050972;28;20199;-67
2023/06/12 03:26:38;;;;;;;10.80;6.20;;;;;;;17.31;65.37;100393.66;5059163;28;20218;-67
2023/06/12 03:29:05;;;;;;;8.40;6.77;;;;;;;17.37;64.99;100382.84;5050721;28;20211;-66
2023/06/12 03:31:31;;;;;;;8.40;6.47;;;;;;;17.41;64.50;100388.13;5046535;28;20566;-68
2023/06/12 03:33:57;;;;;;;9.13;6.77;;;;;;;17.39;64.83;100392.63;5056317;28;20247;-66
2023/06/12 03:36:25;;;;;;;11.93;6.90;;;;;;;17.50;64.58;100388.00;5052023;28;20652;-67
2023/06/12 03:38:52;;;;;;;8.60;6.40;;;;;;;17.58;64.93;100387.00;5055066;28;20202;-66
2023/06/12 03:41:21;;;;;;;10.67;6.53;;;;;;;17.65;64.83;100394.06;5047638;28;20690;-67
2023/06/12 03:43:48;;;;;;;11.37;6.70;;;;;;;17.70;64.63;100390.41;5049931;28;20276;-66
2023/06/12 03:46:14;;;;;;;9.20;6.87;;;;;;;17.75;63.99;100393.91;5051718;28;20737;-67
2023/06/12 03:48:41;;;;;;;7.30;6.33;;;;;;;17.75;63.58;100388.56;5047854;28;20219;-68
2023/06/12 03:51:07;;;;;;;10.07;6.40;;;;;;;17.76;64.20;100390.31;5053695;28;20333;-67
2023/06/12 03:53:34;;;;;;;7.97;6.20;;;;;;;17.75;64.27;100399.25;5057106;28;20194;-67
2023/06/12 03:56:01;;;;;;;10.23;6.73;;;;;;;17.74;64.09;100399.28;5047695;28;20297;-67
2023/06/12 03:58:27;;;;;;;10.60;6.33;;;;;;;17.80;63.50;100407.22;5051050;28;20190;-67
2023/06/12 04:00:54;;;;;;;8.07;6.60;;;;;;;17.87;63.99;100402.66;5045623;28;20195;-67
2023/06/12 04:03:21;;;;;;;7.73;6.77;;;;;;;17.88;63.45;100404.41;5052798;28;20195;-66
2023/06/12 04:05:48;;;;;;;11.57;6.53;;;;;;;17.97;63.13;100406.94;5052624;28;20302;-68
2023/06/12 04:08:15;;;;;;;10.00;6.77;;;;;;;18.03;62.75;100407.75;5051789;28;20195;-67
2023/06/12 04:10:42;;;;;;;8.03;6.43;;;;;;;18.03;63.39;100415.78;5046433;28;20711;-66
2023/06/12 04:13:08;;;;;;;13.40;7.13;;;;;;;18.18;63.11;100414.63;5047673;28;20639;-67
2023/06/12 04:15:36;;;;;;;8.93;6.37;;;;;;;18.34;62.24;100421.47;5046831;28;20604;-67
2023/06/12 04:18:04;;;;;;;11.60;7.03;;;;;;;18.44;62.30;100425.78;5045747;28;20248;-67
2023/06/12 04:20:32;;;;;;;8.10;6.20;;;;;;;18.58;61.47;100424.66;5049654;28;20625;-67
2023/06/12 04:23:04;;;;;;;8.90;6.33;;;;;;;18.66;61.01;100428.97;5049912;28;20277;-67
2023/06/12 04:25:34;;;;;;;8.23;6.73;;;;;;;18.84;60.47;100422.41;5047512;28;20733;-68
2023/06/12 04:28:02;;;;;;;8.60;6.37;;;;;;;18.91;60.60;100432.09;5046595;28;20273;-69
2023/06/12 04:30:31;;;;;;;12.47;6.80;;;;;;;19.03;60.70;100428.25;5044276;28;20210;-67
2023/06/12 04:32:57;;;;;;;7.30;6.23;;;;;;;19.10;60.28;100421.84;5047393;28;20203;-68
2023/06/12 04:35:24;;;;;;;8.57;6.00;;;;;;;19.15;60.27;100430.69;5056242;28;20215;-67
2023/06/12 04:37:52;;;;;;;7.87;6.20;;;;;;;19.20;60.57;100431.47;5049842;28;20737;-69
2023/06/12 04:40:22;;;;;;;9.97;6.60;;;;;;;19.26;60.89;100415.25;5044948;28;20195;-67
2023/06/12 04:42:56;;;;;;;8.53;6.60;;;;;;;19.32;60.61;100417.78;5048812;28;20581;-67
2023/06/12 04:45:23;;;;;;;10.17;7.03;;;;;;;19.41;60.72;100411.31;5051291;28;20226;-66
2023/06/12 04:47:51;;;;;;;9.00;6.40;;;;;;;19.53;60.13;100404.81;5056337;28;20202;-66
2023/06/12 04:50:18;;;;;;;8.07;6.40;;;;;;;19.70;57.95;100414.28;5055339;28;20265;-67
2023/06/12 04:52:47;;;;;;;9.60;6.30;;;;;;;19.85;57.55;100406.75;5051711;28;20198;-67
2023/06/12 04:55:20;;;;;;;9.63;6.37;;;;;;;19.94;56.41;100402.03;5045852;28;20199;-69
2023/06/12 04:57:52;;;;;;;7.80;6.03;;;;;;;20.12;53.49;100402.50;5048232;28;20202;-66
2023/06/12 05:00:20;;;;;;;9.50;6.13;;;;;;;20.18;54.17;100405.91;5050326;28;20361;-68
2023/06/12 05:02:46;;;;;;;10.17;6.13;;;;;;;20.30;51.89;100405.59;5056499;28;20713;-67
2023/06/12 05:05:13;;;;;;;7.87;6.10;;;;;;;20.35;52.09;100408.16;5045315;28;20195;-67
2023/06/12 05:07:41;;;;;;;8.43;6.37;;;;;;;20.39;51.88;100401.75;5046109;28;20579;-67
2023/06/12 05:10:08;;;;;;;11.17;6.63;;;;;;;20.41;52.80;100402.63;5045126;28;20321;-67
2023/06/12 05:12:35;;;;;;;8.43;5.80;;;;;;;20.43;52.43;100408.91;5045786;28;20252;-66
2023/06/12 05:15:01;;;;;;;7.80;6.32;;;;;;;20.50;51.60;100415.00;5055041;28;20198;-67
2023/06/12 05:17:27;;;;;;;9.43;6.63;;;;;;;20.61;51.48;100413.78;5050662;28;20213;-70
2023/06/12 05:19:54;;;;;;;9.88;6.70;;;;;;;20.72;51.16;100413.47;5046800;28;20249;-69
2023/06/12 05:22:20;;;;;;;7.97;5.93;;;;;;;20.88;50.56;100414.81;5044536;28;20597;-69
2023/06/12 05:24:47;;;;;;;6.30;5.53;;;;;;;21.05;49.47;100411.63;5049157;28;20199;-69
2023/06/12 05:27:13;;;;;;;9.27;6.13;;;;;;;21.28;50.34;100413.69;5055333;28;20240;-69
2023/06/12 05:29:40;;;;;;;11.45;6.07;;;;;;;21.48;49.03;100410.38;5048846;28;20220;-68
2023/06/12 05:32:07;;;;;;;13.23;6.68;;;;;;;22.10;47.44;100413.78;5039388;28;20293;-66
2023/06/12 05:34:34;;;;;;;9.45;6.80;;;;;;;22.21;46.74;100410.72;5043568;28;20218;-66
2023/06/12 05:37:03;;;;;;;11.68;6.82;;;;;;;22.10;46.70;100411.09;5046367;28;20240;-66
2023/06/12 05:39:30;;;;;;;10.25;6.60;;;;;;;22.04;47.81;100415.81;5046014;28;20202;-66
2023/06/12 05:41:56;;;;;;;9.05;6.55;;;;;;;22.05;47.40;100421.16;5045876;28;20678;-66
2023/06/12 05:44:23;;;;;;;11.02;6.50;;;;;;;22.00;47.08;100423.06;5046491;28;20206;-66
2023/06/12 05:46:52;;;;;;;11.43;6.53;;;;;;;22.09;46.57;100422.81;5046642;28;20219;-66
2023/06/12 05:49:18;;;;;;;13.35;6.25;;;;;;;22.30;45.43;100423.88;5047144;28;20301;-66
2023/06/12 05:51:48;;;;;;;18.15;6.60;;;;;;;22.26;45.06;100435.72;5046327;28;20226;-66
2023/06/12 05:54:14;;;;;;;14.52;6.03;;;;;;;22.42;44.56;100428.00;5045685;28;20191;-66
2023/06/12 05:56:41;;;;;;;13.85;6.60;;;;;;;22.63;43.90;100431.75;5043479;28;20732;-69
2023/06/12 05:59:07;;;;;;;17.23;6.78;;;;;;;22.84;43.72;100444.53;5043230;28;20643;-66
2023/06/12 06:01:34;;;;;;;17.95;7.07;;;;;;;22.94;42.61;100437.84;5042061;28;20594;-66
2023/06/12 06:04:00;;;;;;;16.73;6.70;;;;;;;22.95;42.35;100441.44;5036073;28;20209;-66
2023/06/12 06:06:28;;;;;;;16.45;6.65;;;;;;;22.97;42.52;100429.63;5045963;28;20214;-66
2023/06/12 06:08:56;;;;;;;18.27;6.22;;;;;;;22.94;42.57;100443.25;5050403;28;20249;-66
2023/06/12 06:11:22;;;;;;;14.73;7.15;;;;;;;22.86;42.49;100439.97;5045995;28;20680;-66
2023/06/12 06:13:48;;;;;;;14.60;7.25;;;;;;;22.85;42.77;100443.59;5047221;28;20195;-66
2023/06/12 06:16:15;;;;;;;17.65;7.22;;;;;;;22.81;42.82;100445.53;5033461;28;20237;-66
2023/06/12 06:18:41;;;;;;;18.92;7.10;;;;;;;22.94;43.27;100445.06;5047618;28;20755;-65
2023/06/12 06:21:08;;;;;;;10.82;6.65;;;;;;;23.12;42.19;100452.50;5046052;28;20195;-70
2023/06/12 06:23:34;;;;;;;8.88;6.03;;;;;;;23.27;42.16;100449.25;5046075;28;20312;-66
2023/06/12 06:26:03;;;;;;;11.35;7.13;;;;;;;23.62;41.70;100444.34;5046761;28;20313;-66
2023/06/12 06:28:29;;;;;;;12.45;6.22;;;;;;;23.93;40.37;100452.06;5046867;28;20195;-66
2023/06/12 06:30:56;;;;;;;11.75;6.53;;;;;;;23.92;40.87;100451.19;5043689;28;20222;-66
2023/06/12 06:33:22;;;;;;;7.78;6.18;;;;;;;24.06;40.44;100445.25;5045350;28;20294;-66
2023/06/12 06:35:48;;;;;;;11.52;6.60;;;;;;;24.23;39.95;100453.53;5046228;28;20682;-66
2023/06/12 06:38:20;;;;;;;19.30;6.82;;;;;;;24.06;40.42;100456.06;5046089;28;20585;-65
2023/06/12 06:40:48;;;;;;;10.45;6.63;;;;;;;23.88;40.83;100462.22;5042746;28;20222;-65
2023/06/12 06:43:14;;;;;;;10.82;6.13;;;;;;;23.97;41.05;100461.81;5051450;28;20202;-66
2023/06/12 06:45:41;;;;;;;15.10;6.50;;;;;;;23.97;41.22;100456.41;5042412;28;20223;-66
2023/06/12 06:48:08;;;;;;;12.90;6.90;;;;;;;23.99;41.35;100463.53;5044064;28;20199;-67
2023/06/12 06:50:35;;;;;;;10.23;6.75;;;;;;;24.05;41.27;100465.13;5047290;28;20301;-66
2023/06/12 06:53:04;;;;;;;11.23;6.32;;;;;;;24.14;40.81;100458.44;5042563;28;20206;-65
2023/06/12 06:55:30;;;;;;;12.07;6.47;;;;;;;24.22;41.37;100462.59;5045444;28;20214;-67
2023/06/12 06:57:57;;;;;;;11.02;6.43;;;;;;;24.23;40.97;100467.06;5046011;28;20601;-66
2023/06/12 07:00:24;;;;;;;12.43;6.70;;;;;;;24.43;40.63;100468.97;5045090;28;20195;-65
2023/06/12 07:02:51;;;;;;;12.25;6.38;;;;;;;24.37;40.54;100478.22;5044845;28;20198;-65
2023/06/12 07:05:18;;;;;;;15.43;6.60;;;;;;;24.48;41.06;100464.25;5043236;28;20332;-66
2023/06/12 07:07:47;;;;;;;12.18;6.47;;;;;;;25.23;39.54;100466.38;5045162;28;20205;-66
2023/06/12 07:10:27;;;;;;;9.60;6.40;;;;;;;27.36;35.09;100468.41;5044791;28;20819;-65
2023/06/12 07:12:56;;;;;;;11.35;6.95;;;;;;;29.52;31.38;100466.50;5043631;28;20655;-65
2023/06/12 07:15:24;;;;;;;7.88;6.90;;;;;;;31.17;28.62;100469.09;5026776;28;20237;-65
2023/06/12 07:17:51;;;;;;;11.45;6.70;;;;;;;30.66;28.80;100466.28;5043199;28;20231;-66
2023/06/12 07:20:18;;;;;;;9.93;6.28;;;;;;;30.59;29.03;100466.78;5046459;28;20270;-66
2023/06/12 07:22:47;;;;;;;8.63;6.13;;;;;;;31.89;27.02;100463.94;5047842;28;20195;-66
2023/06/12 07:25:14;;;;;;;9.13;6.50;;;;;;;32.23;26.43;100467.75;5043036;28;20290;-65
2023/06/12 07:27:41;;;;;;;7.28;6.20;;;;;;;31.89;26.75;100472.16;5044704;28;20199;-65
2023/06/12 07:30:08;;;;;;;9.52;6.57;;;;;;;32.74;25.86;100462.91;5030512;28;20307;-65
2023/06/12 07:32:35;;;;;;;9.90;6.60;;;;;;;32.83;25.48;100456.78;5042503;28;20635;-65
2023/06/12 07:35:01;;;;;;;13.00;6.47;;;;;;;32.54;26.28;100459.00;5045214;28;20690;-67
2023/06/12 07:37:29;;;;;;;15.82;7.18;;;;;;;32.18;27.01;100459.88;5048488;28;20195;-66
2023/06/12 07:39:55;;;;;;;13.60;6.38;;;;;;;32.24;26.96;100461.28;5046110;28;20643;-67
2023/06/12 07:42:22;;;;;;;11.15;6.43;;;;;;;31.87;26.96;100472.25;5048243;28;20202;-68
2023/06/12 07:44:48;;;;;;;11.90;6.53;;;;;;;30.67;28.79;100464.41;5041148;28;20705;-68
2023/06/12 07:47:15;;;;;;;7.13;6.05;;;;;;;30.39;29.68;100463.53;5050239;28;20591;-67
2023/06/12 07:49:41;;;;;;;11.07;6.88;;;;;;;29.79;30.57;100455.66;5048882;28;20218;-68
2023/06/12 07:52:08;;;;;;;12.18;5.95;;;;;;;30.22;30.14;100458.31;5046407;28;20206;-67
2023/06/12 07:54:34;;;;;;;11.82;6.78;;;;;;;30.13;30.02;100445.28;5050661;28;20203;-67
2023/06/12 07:57:00;;;;;;;9.35;7.10;;;;;;;31.30;28.37;100452.72;5048833;28;20246;-66
2023/06/12 07:59:27;;;;;;;9.32;6.85;;;;;;;31.52;28.36;100441.94;5047215;28;20186;-66
2023/06/12 08:01:55;;;;;;;8.65;6.30;;;;;;;32.10;27.28;100438.56;5051188;28;20223;-66
2023/06/12 08:04:21;;;;;;;7.32;6.50;;;;;;;32.34;27.14;100443.19;5050002;28;20235;-66
2023/06/12 08:06:48;;;;;;;9.43;6.53;;;;;;;31.98;27.12;100452.28;5046806;28;20246;-66
2023/06/12 08:09:14;;;;;;;12.52;6.38;;;;;;;30.80;29.27;100447.03;5048097;28;20199;-70
2023/06/12 08:11:41;;;;;;;10.68;6.53;;;;;;;30.09;30.17;100447.34;5049327;28;20666;-66
2023/06/12 08:14:08;;;;;;;10.02;6.45;;;;;;;29.48;31.59;100444.97;5050209;28;20571;-66
2023/06/12 08:16:34;;;;;;;8.18;5.95;;;;;;;30.45;30.41;100435.78;5047845;28;20226;-66
2023/06/12 08:19:01;;;;;;;9.93;6.78;;;;;;;30.64;29.82;100445.50;5048441;28;20226;-66
2023/06/12 08:21:28;;;;;;;14.52;7.20;;;;;;;30.35;30.11;100433.78;5048486;28;20187;-66
2023/06/12 08:23:55;;;;;;;9.05;6.50;;;;;;;29.79;30.90;100446.59;5043842;28;20623;-70
2023/06/12 08:26:24;;;;;;;10.95;6.50;;;;;;;28.44;33.06;100442.31;5044031;28;20234;-69
2023/06/12 08:28:51;;;;;;;9.30;6.47;;;;;;;28.07;34.37;100436.28;5046603;28;20199;-70
2023/06/12 08:31:18;;;;;;;8.52;6.47;;;;;;;28.15;34.53;100430.38;5044919;28;20313;-70
2023/06/12 08:33:45;;;;;;;9.15;7.18;;;;;;;28.37;34.13;100431.75;5045017;28;20245;-69
2023/06/12 08:36:12;;;;;;;10.93;6.68;;;;;;;28.47;34.07;100432.13;5047814;28;20210;-70
2023/06/12 08:38:38;;;;;;;12.30;6.47;;;;;;;27.56;35.52;100437.34;5049400;28;20205;-69
2023/06/12 08:41:05;;;;;;;8.32;6.93;;;;;;;27.62;35.61;100424.34;5049780;28;20195;-69
2023/06/12 08:43:33;;;;;;;12.15;6.57;;;;;;;27.72;35.72;100428.28;5046635;28;20269;-69
2023/06/12 08:46:03;;;;;;;8.20;6.60;;;;;;;27.83;35.85;100424.94;5049289;28;20717;-69
2023/06/12 08:48:30;;;;;;;10.77;6.88;;;;;;;27.90;35.03;100426.34;5044489;28;20717;-66
2023/06/12 08:50:57;;;;;;;9.50;6.03;;;;;;;28.16;34.86;100419.41;5047115;28;20242;-66
2023/06/12 08:53:23;;;;;;;9.27;6.47;;;;;;;28.30;34.32;100411.31;5047332;28;20380;-66
2023/06/12 08:55:50;;;;;;;8.10;6.22;;;;;;;28.37;34.68;100418.13;5043837;28;20602;-66
2023/06/12 08:58:17;;;;;;;7.65;6.30;;;;;;;28.55;34.10;100407.13;5046261;28;20286;-66
2023/06/12 09:00:43;;;;;;;8.40;6.55;;;;;;;28.60;34.33;100414.03;5048430;28;20222;-65
2023/06/12 09:03:11;;;;;;;11.00;6.25;;;;;;;27.82;34.71;100412.31;5045222;28;20210;-66
2023/06/12 09:05:39;;;;;;;7.78;6.50;;;;;;;27.56;35.52;100415.59;5045141;28;20210;-66
2023/06/12 09:08:06;;;;;;;8.38;6.53;;;;;;;27.71;35.47;100412.06;5047709;28;20194;-66
2023/06/12 09:10:34;;;;;;;7.82;6.18;;;;;;;27.48;35.60;100407.88;5048027;28;20219;-66
2023/06/12 09:13:09;;;;;;;10.48;6.78;;;;;;;27.48;36.11;100403.31;5042018;28;20203;-65
2023/06/12 09:15:37;;;;;;;9.02;6.47;;;;;;;27.89;36.19;100400.09;5043869;28;20291;-66
2023/06/12 09:18:10;;;;;;;7.30;6.43;;;;;;;28.15;35.30;100403.16;5047567;28;20195;-66
2023/06/12 09:20:38;;;;;;;12.82;6.18;;;;;;;28.37;35.00;100398.19;5046602;28;20725;-66
2023/06/12 09:23:11;;;;;;;9.23;6.80;;;;;;;28.21;34.99;100403.66;5046805;28;20199;-67
2023/06/12 09:25:40;;;;;;;14.73;7.25;;;;;;;28.37;35.74;100388.16;5045691;28;20227;-66
2023/06/12 09:28:09;;;;;;;11.23;6.70;;;;;;;28.56;35.20;100393.41;5042976;28;20687;-66
2023/06/12 09:30:42;;;;;;;10.38;6.70;;;;;;;28.74;34.86;100398.69;5040234;28;20879;-66
2023/06/12 09:33:09;;;;;;;7.80;6.93;;;;;;;28.78;34.30;100397.50;5044981;28;20195;-66
2023/06/12 09:36:02;;;;;;;6.50;5.90;;;;;;;29.13;33.78;100387.16;5045278;28;20667;-66
2023/06/12 09:38:32;;;;;;;6.97;6.25;;;;;;;29.41;33.47;100392.63;5042892;28;20191;-66
2023/06/12 09:41:01;;;;;;;7.88;6.63;;;;;;;29.53;32.90;100393.69;5046910;28;20218;-66
2023/06/12 09:43:27;;;;;;;11.85;6.82;;;;;;;29.66;33.07;100378.28;5045970;28;20203;-66
2023/06/12 09:45:55;;;;;;;8.48;6.50;;;;;;;29.70;33.15;100373.50;5047372;28;20699;-66
2023/06/12 09:48:21;;;;;;;9.38;6.80;;;;;;;29.72;33.29;100379.72;5039013;28;20209;-66
2023/06/12 09:50:48;;;;;;;8.68;6.05;;;;;;;29.68;32.38;100379.06;5040365;28;20265;-67
2023/06/12 09:53:17;;;;;;;7.28;6.57;;;;;;;29.14;32.31;100387.06;5039618;28;20194;-66
2023/06/12 09:55:45;;;;;;;10.43;6.22;;;;;;;29.03;32.84;100384.16;5038849;28;21188;-66
2023/06/12 09:58:18;;;;;;;6.88;6.07;;;;;;;29.22;32.58;100371.09;5039984;28;20285;-66
2023/06/12 10:00:46;;;;;;;8.25;6.45;;;;;;;29.53;32.38;100393.69;5042392;28;20278;-66
2023/06/12 10:03:15;;;;;;;10.27;6.85;;;;;;;29.25;32.61;100380.94;5037453;28;20222;-66
2023/06/12 10:05:47;;;;;;;9.05;6.97;;;;;;;29.47;32.59;100381.31;5045707;28;20231;-66
2023/06/12 10:08:15;;;;;;;8.68;6.75;;;;;;;29.84;31.64;100374.31;5045411;28;20610;-65
2023/06/12 10:10:42;;;;;;;9.68;6.90;;;;;;;30.00;32.42;100381.47;5043929;28;20227;-66
2023/06/12 10:13:09;;;;;;;8.93;6.65;;;;;;;29.55;29.98;100380.81;5050587;28;20290;-66
2023/06/12 10:15:35;;;;;;;8.48;6.72;;;;;;;29.39;29.81;100374.59;5046037;28;20309;-66
2023/06/12 10:18:03;;;;;;;8.00;6.72;;;;;;;29.12;30.78;100379.94;5045057;28;20199;-66
2023/06/12 10:20:30;;;;;;;8.85;6.43;;;;;;;29.60;29.88;100382.25;5044873;28;20636;-66
2023/06/12 10:22:58;;;;;;;9.10;7.00;;;;;;;29.97;28.16;100384.41;5042586;28;20597;-67
2023/06/12 10:25:24;;;;;;;7.82;7.03;;;;;;;30.23;28.89;100378.97;5045668;28;20215;-67
2023/06/12 10:27:53;;;;;;;10.32;6.88;;;;;;;30.58;29.28;100383.00;5044073;28;20210;-66
2023/06/12 10:30:20;;;;;;;11.00;6.85;;;;;;;30.21;29.39;100380.06;5044985;28;20221;-67
2023/06/12 10:32:46;;;;;;;8.40;6.88;;;;;;;28.98;31.60;100378.09;5043193;28;20198;-67
2023/06/12 10:35:29;;;;;;;12.30;6.90;;;;;;;28.77;32.79;100369.38;5045881;28;20551;-67
2023/06/12 10:37:56;;;;;;;9.57;7.18;;;;;;;28.73;33.31;100373.25;5039939;28;20222;-67
2023/06/12 10:40:23;;;;;;;8.35;7.10;;;;;;;28.39;32.77;100369.00;5052524;28;20195;-66
2023/06/12 10:43:11;;;;;;;8.52;6.75;;;;;;;28.14;32.38;100374.16;5059747;28;20201;-66
2023/06/12 10:45:38;;;;;;;11.23;7.60;;;;;;;28.03;32.67;100359.34;5049976;28;20222;-67
2023/06/12 10:48:05;;;;;;;10.10;6.93;;;;;;;27.73;32.89;100366.56;5044494;28;20203;-66
2023/06/12 10:50:44;;;;;;;9.20;7.25;;;;;;;27.58;32.88;100354.66;5045125;28;20586;-66
2023/06/12 10:53:26;;;;;;;8.20;7.00;;;;;;;27.54;33.25;100349.50;5053163;28;20197;-66
2023/06/12 10:56:07;;;;;;;10.15;7.88;;;;;;;27.43;33.68;100361.00;5047810;28;20243;-68
2023/06/12 10:58:36;;;;;;;11.45;7.40;;;;;;;27.37;33.92;100358.63;5041911;28;20190;-69
2023/06/12 11:01:10;;;;;;;8.48;6.53;;;;;;;27.09;34.20;100348.41;5048883;28;20229;-68
2023/06/12 11:03:39;;;;;;;11.00;7.40;;;;;;;27.60;33.89;100346.41;5048564;28;20195;-68
2023/06/12 11:06:16;;;;;;;10.23;6.88;;;;;;;28.18;33.27;100348.50;5048465;28;20704;-69
2023/06/12 11:08:45;;;;;;;8.85;7.32;;;;;;;28.84;31.09;100343.53;5037180;28;20620;-69
2023/06/12 11:11:14;;;;;;;10.82;8.02;;;;;;;29.44;30.76;100342.44;5044544;28;20218;-68
2023/06/12 11:13:44;;;;;;;9.40;7.18;;;;;;;29.83;29.50;100342.53;5037632;28;20195;-68
2023/06/12 11:16:14;;;;;;;11.40;7.93;;;;;;;30.08;28.72;100343.66;5041847;28;20314;-68
2023/06/12 11:18:42;;;;;;;7.90;6.65;;;;;;;30.23;28.48;100343.47;5043589;28;20293;-67
2023/06/12 11:21:10;;;;;;;9.23;7.60;;;;;;;30.24;27.33;100337.00;5039603;28;20943;-70
2023/06/12 11:23:42;;;;;;;7.78;6.97;;;;;;;29.81;27.67;100335.44;5040293;28;20210;-68
2023/06/12 11:26:09;;;;;;;8.93;7.32;;;;;;;29.28;28.22;100329.78;5038755;28;20599;-68
2023/06/12 11:28:36;;;;;;;8.05;6.90;;;;;;;29.44;27.94;100340.59;5039665;28;20715;-67